sensor_id;sensor_type;location;lat;lon;timestamp;pressure;altitude;pressure_sealevel;temperature;humidity
26563;BME280;14217;50.986;5.826;2022-07-12T00:03:35;101787.31;;;26.82;40.02
26563;BME280;14217;50.986;5.826;2022-07-12T00:08:37;101786.25;;;26.84;39.85
26563;BME280;14217;50.986;5.826;2022-07-12T00:13:39;101785.50;;;26.82;39.90
26563;BME280;14217;50.986;5.826;2022-07-12T00:18:41;101788.84;;;26.86;40.03
26563;BME280;14217;50.986;5.826;2022-07-12T00:23:43;101786.06;;;26.87;39.82
26563;BME280;14217;50.986;5.826;2022-07-12T00:28:45;101787.59;;;26.77;39.99
26563;BME280;14217;50.986;5.826;2022-07-12T00:33:47;101779.06;;;26.85;39.76
26563;BME280;14217;50.986;5.826;2022-07-12T00:38:49;101761.31;;;26.82;39.92
26563;BME280;14217;50.986;5.826;2022-07-12T00:43:51;101754.19;;;26.81;39.77
26563;BME280;14217;50.986;5.826;2022-07-12T00:48:54;101751.50;;;26.81;39.74
26563;BME280;14217;50.986;5.826;2022-07-12T00:53:57;101746.25;;;26.80;39.66
26563;BME280;14217;50.986;5.826;2022-07-12T00:59:00;101750.72;;;26.79;39.72
26563;BME280;14217;50.986;5.826;2022-07-12T01:04:02;101748.03;;;26.79;39.64
26563;BME280;14217;50.986;5.826;2022-07-12T01:09:04;101750.63;;;26.81;39.73
26563;BME280;14217;50.986;5.826;2022-07-12T01:14:07;101743.44;;;26.81;39.66
26563;BME280;14217;50.986;5.826;2022-07-12T01:19:11;101758.63;;;26.82;39.56
26563;BME280;14217;50.986;5.826;2022-07-12T01:24:19;101753.88;;;26.86;39.49
26563;BME280;14217;50.986;5.826;2022-07-12T01:29:21;101756.00;;;26.81;39.35
26563;BME280;14217;50.986;5.826;2022-07-12T01:34:23;101757.72;;;26.82;39.51
26563;BME280;14217;50.986;5.826;2022-07-12T01:39:25;101760.31;;;26.83;39.48
26563;BME280;14217;50.986;5.826;2022-07-12T01:44:27;101755.16;;;26.80;39.59
26563;BME280;14217;50.986;5.826;2022-07-12T01:49:29;101765.69;;;26.83;39.47
26563;BME280;14217;50.986;5.826;2022-07-12T01:54:32;101754.41;;;26.78;39.56
26563;BME280;14217;50.986;5.826;2022-07-12T01:59:34;101764.31;;;26.77;39.50
26563;BME280;14217;50.986;5.826;2022-07-12T02:04:37;101762.38;;;26.80;39.51
26563;BME280;14217;50.986;5.826;2022-07-12T02:09:39;101759.88;;;26.76;39.40
26563;BME280;14217;50.986;5.826;2022-07-12T02:14:41;101764.38;;;26.76;39.54
26563;BME280;14217;50.986;5.826;2022-07-12T02:19:44;101761.47;;;26.79;39.35
26563;BME280;14217;50.986;5.826;2022-07-12T02:24:46;101766.09;;;26.77;39.48
26563;BME280;14217;50.986;5.826;2022-07-12T02:29:48;101768.59;;;26.80;39.16
26563;BME280;14217;50.986;5.826;2022-07-12T02:34:50;101758.91;;;26.77;39.23
26563;BME280;14217;50.986;5.826;2022-07-12T02:39:52;101764.31;;;26.77;39.40
26563;BME280;14217;50.986;5.826;2022-07-12T02:45:14;101762.66;;;26.75;39.29
26563;BME280;14217;50.986;5.826;2022-07-12T02:50:16;101765.91;;;26.80;39.44
26563;BME280;14217;50.986;5.826;2022-07-12T02:55:18;101769.38;;;26.82;39.22
26563;BME280;14217;50.986;5.826;2022-07-12T03:00:20;101778.38;;;26.81;38.93
26563;BME280;14217;50.986;5.826;2022-07-12T03:05:23;101769.56;;;26.79;39.15
26563;BME280;14217;50.986;5.826;2022-07-12T03:10:25;101775.31;;;26.73;39.33
26563;BME280;14217;50.986;5.826;2022-07-12T03:15:27;101776.53;;;26.82;39.00
26563;BME280;14217;50.986;5.826;2022-07-12T03:20:32;101769.56;;;26.79;39.15
26563;BME280;14217;50.986;5.826;2022-07-12T03:25:35;101770.63;;;26.76;39.31
26563;BME280;14217;50.986;5.826;2022-07-12T03:30:37;101773.63;;;26.72;39.12
26563;BME280;14217;50.986;5.826;2022-07-12T03:35:38;101784.81;;;26.79;39.30
26563;BME280;14217;50.986;5.826;2022-07-12T03:40:40;101778.78;;;26.75;39.23
26563;BME280;14217;50.986;5.826;2022-07-12T03:45:43;101779.66;;;26.75;39.08
26563;BME280;14217;50.986;5.826;2022-07-12T03:50:47;101773.41;;;26.75;38.97
26563;BME280;14217;50.986;5.826;2022-07-12T03:55:49;101782.53;;;26.72;38.88
26563;BME280;14217;50.986;5.826;2022-07-12T04:00:51;101781.47;;;26.75;39.02
26563;BME280;14217;50.986;5.826;2022-07-12T04:05:53;101786.97;;;26.73;39.00
26563;BME280;14217;50.986;5.826;2022-07-12T04:11:01;101783.97;;;26.78;38.91
26563;BME280;14217;50.986;5.826;2022-07-12T04:16:03;101789.53;;;26.75;39.00
26563;BME280;14217;50.986;5.826;2022-07-12T04:21:06;101780.06;;;26.69;39.25
26563;BME280;14217;50.986;5.826;2022-07-12T04:26:08;101791.47;;;26.73;39.04
26563;BME280;14217;50.986;5.826;2022-07-12T04:31:10;101789.84;;;26.70;39.26
26563;BME280;14217;50.986;5.826;2022-07-12T04:36:12;101789.53;;;26.75;38.66
26563;BME280;14217;50.986;5.826;2022-07-12T04:41:14;101781.19;;;26.80;38.55
26563;BME280;14217;50.986;5.826;2022-07-12T04:46:22;101791.47;;;26.73;38.87
26563;BME280;14217;50.986;5.826;2022-07-12T04:51:24;101788.97;;;26.70;38.92
26563;BME280;14217;50.986;5.826;2022-07-12T04:56:26;101802.44;;;26.70;39.05
26563;BME280;14217;50.986;5.826;2022-07-12T05:01:31;101807.59;;;26.73;38.81
26563;BME280;14217;50.986;5.826;2022-07-12T05:06:34;101806.19;;;26.67;38.87
26563;BME280;14217;50.986;5.826;2022-07-12T05:11:36;101800.59;;;26.70;39.00
26563;BME280;14217;50.986;5.826;2022-07-12T05:16:38;101798.75;;;26.71;38.74
26563;BME280;14217;50.986;5.826;2022-07-12T05:21:40;101796.06;;;26.71;38.66
26563;BME280;14217;50.986;5.826;2022-07-12T05:26:43;101799.66;;;26.71;38.95
26563;BME280;14217;50.986;5.826;2022-07-12T05:31:45;101807.22;;;26.65;38.93
26563;BME280;14217;50.986;5.826;2022-07-12T05:36:47;101798.75;;;26.71;39.03
26563;BME280;14217;50.986;5.826;2022-07-12T05:41:49;101807.03;;;26.68;38.91
26563;BME280;14217;50.986;5.826;2022-07-12T05:46:51;101810.50;;;26.70;38.84
26563;BME280;14217;50.986;5.826;2022-07-12T05:51:53;101812.41;;;26.68;38.74
26563;BME280;14217;50.986;5.826;2022-07-12T05:57:16;101823.06;;;26.69;38.85
26563;BME280;14217;50.986;5.826;2022-07-12T06:02:18;101825.00;;;26.67;38.89
26563;BME280;14217;50.986;5.826;2022-07-12T06:07:20;101825.25;;;26.63;39.02
26563;BME280;14217;50.986;5.826;2022-07-12T06:12:22;101828.72;;;26.65;39.46
26563;BME280;14217;50.986;5.826;2022-07-12T06:17:24;101842.34;;;26.47;41.29
26563;BME280;14217;50.986;5.826;2022-07-12T06:22:27;101844.63;;;26.39;41.94
26563;BME280;14217;50.986;5.826;2022-07-12T06:27:29;101853.84;;;26.35;42.17
26563;BME280;14217;50.986;5.826;2022-07-12T06:32:31;101859.22;;;26.35;41.96
26563;BME280;14217;50.986;5.826;2022-07-12T06:37:34;101860.09;;;26.35;41.92
26563;BME280;14217;50.986;5.826;2022-07-12T06:42:36;101869.72;;;26.40;42.15
26563;BME280;14217;50.986;5.826;2022-07-12T06:47:38;101873.34;;;26.39;42.38
26563;BME280;14217;50.986;5.826;2022-07-12T06:52:40;101865.19;;;26.40;42.44
26563;BME280;14217;50.986;5.826;2022-07-12T06:57:42;101865.38;;;26.37;42.49
26563;BME280;14217;50.986;5.826;2022-07-12T07:02:44;101865.84;;;26.29;42.66
26563;BME280;14217;50.986;5.826;2022-07-12T07:07:46;101868.44;;;26.31;42.60
26563;BME280;14217;50.986;5.826;2022-07-12T07:12:48;101868.44;;;26.31;42.53
26563;BME280;14217;50.986;5.826;2022-07-12T07:17:51;101865.47;;;26.35;42.51
26563;BME280;14217;50.986;5.826;2022-07-12T07:22:53;101871.81;;;26.49;42.16
26563;BME280;14217;50.986;5.826;2022-07-12T07:27:56;101874.06;;;26.56;42.15
26563;BME280;14217;50.986;5.826;2022-07-12T07:32:58;101882.91;;;26.59;41.69
26563;BME280;14217;50.986;5.826;2022-07-12T07:38:01;101880.22;;;26.59;41.86
26563;BME280;14217;50.986;5.826;2022-07-12T07:43:03;101878.47;;;26.58;41.67
26563;BME280;14217;50.986;5.826;2022-07-12T07:48:05;101882.91;;;26.59;41.79
26563;BME280;14217;50.986;5.826;2022-07-12T07:53:25;101890.34;;;26.53;42.19
26563;BME280;14217;50.986;5.826;2022-07-12T07:58:27;101887.97;;;26.63;41.98
26563;BME280;14217;50.986;5.826;2022-07-12T08:03:29;101896.13;;;26.62;42.81
26563;BME280;14217;50.986;5.826;2022-07-12T08:08:31;101884.78;;;26.71;42.01
26563;BME280;14217;50.986;5.826;2022-07-12T08:13:53;101891.06;;;26.71;41.68
26563;BME280;14217;50.986;5.826;2022-07-12T08:18:56;101877.22;;;26.77;41.91
26563;BME280;14217;50.986;5.826;2022-07-12T08:23:58;101871.94;;;26.76;41.66
26563;BME280;14217;50.986;5.826;2022-07-12T08:29:00;101863.78;;;26.77;41.48
26563;BME280;14217;50.986;5.826;2022-07-12T08:34:02;101851.50;;;26.73;41.42
26563;BME280;14217;50.986;5.826;2022-07-12T08:39:04;101846.59;;;26.80;41.03
26563;BME280;14217;50.986;5.826;2022-07-12T08:44:06;101848.69;;;26.75;41.33
26563;BME280;14217;50.986;5.826;2022-07-12T08:49:08;101848.28;;;26.81;40.95
26563;BME280;14217;50.986;5.826;2022-07-12T08:54:12;101851.97;;;26.80;40.88
26563;BME280;14217;50.986;5.826;2022-07-12T08:59:19;101846.59;;;26.80;40.60
26563;BME280;14217;50.986;5.826;2022-07-12T09:04:24;101848.28;;;26.81;40.55
26563;BME280;14217;50.986;5.826;2022-07-12T09:09:32;101856.47;;;26.80;40.61
26563;BME280;14217;50.986;5.826;2022-07-12T09:14:34;101848.28;;;26.81;40.43
26563;BME280;14217;50.986;5.826;2022-07-12T09:19:39;101850.81;;;26.84;40.35
26563;BME280;14217;50.986;5.826;2022-07-12T09:24:41;101857.97;;;26.84;40.18
26563;BME280;14217;50.986;5.826;2022-07-12T09:29:47;101866.47;;;26.77;41.44
26563;BME280;14217;50.986;5.826;2022-07-12T09:34:57;101866.56;;;26.76;41.62
26563;BME280;14217;50.986;5.826;2022-07-12T09:40:20;101870.41;;;26.72;41.94
26563;BME280;14217;50.986;5.826;2022-07-12T09:45:22;101873.66;;;26.77;41.72
26563;BME280;14217;50.986;5.826;2022-07-12T09:50:24;101873.94;;;26.72;41.95
26563;BME280;14217;50.986;5.826;2022-07-12T09:55:29;101874.31;;;26.81;41.64
26563;BME280;14217;50.986;5.826;2022-07-12T10:00:33;101871.94;;;26.76;42.39
26563;BME280;14217;50.986;5.826;2022-07-12T10:05:38;101863.66;;;26.79;42.14
26563;BME280;14217;50.986;5.826;2022-07-12T10:10:43;101860.78;;;26.82;41.95
26563;BME280;14217;50.986;5.826;2022-07-12T10:15:46;101863.56;;;26.81;42.81
26563;BME280;14217;50.986;5.826;2022-07-12T10:20:50;101866.16;;;26.82;42.77
26563;BME280;14217;50.986;5.826;2022-07-12T10:25:52;101864.25;;;26.84;42.73
26563;BME280;14217;50.986;5.826;2022-07-12T10:30:54;101856.66;;;26.76;42.87
26563;BME280;14217;50.986;5.826;2022-07-12T10:36:04;101855.72;;;26.77;43.13
26563;BME280;14217;50.986;5.826;2022-07-12T10:41:19;101853.59;;;26.83;42.49
26563;BME280;14217;50.986;5.826;2022-07-12T10:46:23;101853.38;;;26.86;42.22
26563;BME280;14217;50.986;5.826;2022-07-12T10:51:27;101851.56;;;26.86;42.59
26563;BME280;14217;50.986;5.826;2022-07-12T10:56:29;101844.06;;;26.91;42.84
26563;BME280;14217;50.986;5.826;2022-07-12T11:01:33;101841.97;;;26.82;42.46
26563;BME280;14217;50.986;5.826;2022-07-12T11:06:40;101836.38;;;26.85;42.64
26563;BME280;14217;50.986;5.826;2022-07-12T11:11:47;101830.59;;;26.91;42.34
26563;BME280;14217;50.986;5.826;2022-07-12T11:16:54;101831.53;;;26.77;43.07
26563;BME280;14217;50.986;5.826;2022-07-12T11:21:56;101832.16;;;26.81;43.12
26563;BME280;14217;50.986;5.826;2022-07-12T11:27:00;101826.22;;;26.76;43.03
26563;BME280;14217;50.986;5.826;2022-07-12T11:32:04;101826.38;;;26.87;42.94
26563;BME280;14217;50.986;5.826;2022-07-12T11:37:12;101823.16;;;26.82;42.93
26563;BME280;14217;50.986;5.826;2022-07-12T11:42:14;101817.00;;;26.80;43.28
26563;BME280;14217;50.986;5.826;2022-07-12T11:47:18;101812.47;;;26.81;43.04
26563;BME280;14217;50.986;5.826;2022-07-12T11:52:22;101822.09;;;26.85;42.37
26563;BME280;14217;50.986;5.826;2022-07-12T11:57:24;101812.41;;;26.82;42.07
26563;BME280;14217;50.986;5.826;2022-07-12T12:02:28;101809.19;;;26.90;41.85
26563;BME280;14217;50.986;5.826;2022-07-12T12:07:30;101794.34;;;26.84;42.17
26563;BME280;14217;50.986;5.826;2022-07-12T12:18:04;101783.75;;;26.81;41.94
26563;BME280;14217;50.986;5.826;2022-07-12T12:23:15;101793.94;;;26.90;41.68
26563;BME280;14217;50.986;5.826;2022-07-12T12:28:17;101790.84;;;26.96;41.50
26563;BME280;14217;50.986;5.826;2022-07-12T12:33:42;101786.41;;;26.95;41.35
26563;BME280;14217;50.986;5.826;2022-07-12T12:38:45;101792.56;;;26.97;41.26
26563;BME280;14217;50.986;5.826;2022-07-12T12:43:48;101789.88;;;26.97;40.89
26563;BME280;14217;50.986;5.826;2022-07-12T12:48:57;101782.78;;;26.96;40.97
26563;BME280;14217;50.986;5.826;2022-07-12T12:53:59;101773.38;;;26.89;41.12
26563;BME280;14217;50.986;5.826;2022-07-12T12:59:01;101770.50;;;26.92;41.02
26563;BME280;14217;50.986;5.826;2022-07-12T13:04:08;101769.44;;;26.95;40.67
26563;BME280;14217;50.986;5.826;2022-07-12T13:09:10;101760.81;;;27.03;40.70
26563;BME280;14217;50.986;5.826;2022-07-12T13:14:12;101767.50;;;26.97;40.37
26563;BME280;14217;50.986;5.826;2022-07-12T13:19:14;101774.72;;;26.96;40.65
26563;BME280;14217;50.986;5.826;2022-07-12T13:24:16;101768.91;;;27.03;40.70
26563;BME280;14217;50.986;5.826;2022-07-12T13:29:18;101763.38;;;26.91;40.75
26563;BME280;14217;50.986;5.826;2022-07-12T13:34:20;101760.50;;;26.94;40.72
26563;BME280;14217;50.986;5.826;2022-07-12T13:39:22;101759.34;;;26.99;40.61
26563;BME280;14217;50.986;5.826;2022-07-12T13:44:43;101757.28;;;27.02;40.31
26563;BME280;14217;50.986;5.826;2022-07-12T13:49:45;101754.22;;;26.94;40.43
26563;BME280;14217;50.986;5.826;2022-07-12T13:54:47;101753.47;;;26.92;40.49
26563;BME280;14217;50.986;5.826;2022-07-12T13:59:50;101758.56;;;26.96;40.27
26563;BME280;14217;50.986;5.826;2022-07-12T14:04:52;101749.31;;;27.01;39.91
26563;BME280;14217;50.986;5.826;2022-07-12T14:09:54;101748.66;;;26.97;40.13
26563;BME280;14217;50.986;5.826;2022-07-12T14:14:56;101749.44;;;26.99;39.85
26563;BME280;14217;50.986;5.826;2022-07-12T14:20:23;101742.22;;;27.00;40.98
26563;BME280;14217;50.986;5.826;2022-07-12T14:25:32;101738.91;;;27.09;41.01
26563;BME280;14217;50.986;5.826;2022-07-12T14:30:35;101737.38;;;27.05;41.19
26563;BME280;14217;50.986;5.826;2022-07-12T14:35:37;101742.00;;;27.03;41.27
26563;BME280;14217;50.986;5.826;2022-07-12T14:40:39;101739.78;;;27.09;41.20
26563;BME280;14217;50.986;5.826;2022-07-12T14:45:41;101733.25;;;27.13;41.17
26563;BME280;14217;50.986;5.826;2022-07-12T14:50:44;101738.91;;;27.09;41.60
26563;BME280;14217;50.986;5.826;2022-07-12T14:55:53;101737.19;;;27.08;41.16
26563;BME280;14217;50.986;5.826;2022-07-12T15:00:56;101728.13;;;27.09;41.26
26563;BME280;14217;50.986;5.826;2022-07-12T15:05:58;101720.19;;;27.07;41.41
26563;BME280;14217;50.986;5.826;2022-07-12T15:11:01;101718.38;;;27.08;41.34
26563;BME280;14217;50.986;5.826;2022-07-12T15:16:03;101719.22;;;27.08;41.59
26563;BME280;14217;50.986;5.826;2022-07-12T15:21:05;101717.91;;;27.01;41.56
26563;BME280;14217;50.986;5.826;2022-07-12T15:26:07;101704.13;;;26.93;41.77
26563;BME280;14217;50.986;5.826;2022-07-12T15:31:09;101702.47;;;26.77;42.11
26563;BME280;14217;50.986;5.826;2022-07-12T15:36:12;101695.34;;;26.76;41.15
26563;BME280;14217;50.986;5.826;2022-07-12T15:41:14;101687.97;;;26.93;40.65
26563;BME280;14217;50.986;5.826;2022-07-12T15:46:16;101680.69;;;27.08;40.16
26563;BME280;14217;50.986;5.826;2022-07-12T15:51:19;101668.00;;;27.10;40.69
26563;BME280;14217;50.986;5.826;2022-07-12T15:56:21;101671.78;;;27.07;40.98
26563;BME280;14217;50.986;5.826;2022-07-12T16:01:23;101658.19;;;27.09;40.70
26563;BME280;14217;50.986;5.826;2022-07-12T16:06:25;101651.44;;;27.03;41.13
26563;BME280;14217;50.986;5.826;2022-07-12T16:11:27;101654.66;;;27.08;40.91
26563;BME280;14217;50.986;5.826;2022-07-12T16:16:29;101656.06;;;27.14;40.84
26563;BME280;14217;50.986;5.826;2022-07-12T16:21:32;101650.34;;;27.06;41.20
26563;BME280;14217;50.986;5.826;2022-07-12T16:26:34;101646.25;;;27.13;41.04
26563;BME280;14217;50.986;5.826;2022-07-12T16:31:36;101644.56;;;27.12;41.15
26563;BME280;14217;50.986;5.826;2022-07-12T16:36:58;101645.41;;;27.12;41.29
26563;BME280;14217;50.986;5.826;2022-07-12T16:42:00;101636.16;;;27.16;41.08
26563;BME280;14217;50.986;5.826;2022-07-12T16:47:02;101632.53;;;27.17;40.87
26563;BME280;14217;50.986;5.826;2022-07-12T16:52:04;101639.50;;;27.20;41.20
26563;BME280;14217;50.986;5.826;2022-07-12T16:57:06;101641.88;;;27.12;41.33
26563;BME280;14217;50.986;5.826;2022-07-12T17:02:08;101640.13;;;27.11;41.42
26563;BME280;14217;50.986;5.826;2022-07-12T17:07:09;101648.00;;;27.14;41.07
26563;BME280;14217;50.986;5.826;2022-07-12T17:12:13;101648.19;;;27.11;41.26
26563;BME280;14217;50.986;5.826;2022-07-12T17:17:16;101647.25;;;27.12;41.16
26563;BME280;14217;50.986;5.826;2022-07-12T17:22:18;101644.47;;;27.13;40.97
26563;BME280;14217;50.986;5.826;2022-07-12T17:27:20;101641.88;;;27.12;41.31
26563;BME280;14217;50.986;5.826;2022-07-12T17:32:22;101641.44;;;27.18;40.85
26563;BME280;14217;50.986;5.826;2022-07-12T17:37:24;101644.28;;;27.29;40.47
26563;BME280;14217;50.986;5.826;2022-07-12T17:42:26;101647.78;;;27.17;40.64
26563;BME280;14217;50.986;5.826;2022-07-12T17:47:28;101645.41;;;27.12;40.65
26563;BME280;14217;50.986;5.826;2022-07-12T17:52:30;101651.88;;;27.10;40.78
26563;BME280;14217;50.986;5.826;2022-07-12T17:57:32;101647.03;;;27.15;40.73
26563;BME280;14217;50.986;5.826;2022-07-12T18:02:34;101654.56;;;27.10;43.74
26563;BME280;14217;50.986;5.826;2022-07-12T18:07:36;101657.06;;;27.26;42.54
26563;BME280;14217;50.986;5.826;2022-07-12T18:12:38;101655.66;;;27.20;43.62
26563;BME280;14217;50.986;5.826;2022-07-12T18:17:59;101656.88;;;27.29;43.83
26563;BME280;14217;50.986;5.826;2022-07-12T18:23:04;101653.91;;;27.19;42.49
26563;BME280;14217;50.986;5.826;2022-07-12T18:28:06;101654.28;;;27.27;42.04
26563;BME280;14217;50.986;5.826;2022-07-12T18:33:10;101649.97;;;27.25;41.73
26563;BME280;14217;50.986;5.826;2022-07-12T18:38:12;101653.91;;;27.19;41.95
26563;BME280;14217;50.986;5.826;2022-07-12T18:43:14;101652.97;;;27.20;41.79
26563;BME280;14217;50.986;5.826;2022-07-12T18:48:16;101650.28;;;27.20;41.91
26563;BME280;14217;50.986;5.826;2022-07-12T18:53:18;101651.34;;;27.17;42.19
26563;BME280;14217;50.986;5.826;2022-07-12T18:58:20;101650.50;;;27.30;41.76
26563;BME280;14217;50.986;5.826;2022-07-12T19:03:22;101659.13;;;27.22;41.89
26563;BME280;14217;50.986;5.826;2022-07-12T19:08:24;101651.81;;;27.24;41.92
26563;BME280;14217;50.986;5.826;2022-07-12T19:13:27;101645.00;;;27.18;42.04
26563;BME280;14217;50.986;5.826;2022-07-12T19:18:29;101641.81;;;27.26;41.58
26563;BME280;14217;50.986;5.826;2022-07-12T19:23:31;101651.97;;;27.21;41.88
26563;BME280;14217;50.986;5.826;2022-07-12T19:28:33;101650.69;;;27.14;41.89
26563;BME280;14217;50.986;5.826;2022-07-12T19:33:35;101643.38;;;27.16;42.01
26563;BME280;14217;50.986;5.826;2022-07-12T19:38:37;101646.94;;;27.16;42.20
26563;BME280;14217;50.986;5.826;2022-07-12T19:43:39;101643.53;;;27.27;42.14
26563;BME280;14217;50.986;5.826;2022-07-12T19:48:41;101643.75;;;27.24;41.78
26563;BME280;14217;50.986;5.826;2022-07-12T19:53:43;101647.19;;;27.26;41.82
26563;BME280;14217;50.986;5.826;2022-07-12T19:58:45;101645.34;;;27.27;41.80
26563;BME280;14217;50.986;5.826;2022-07-12T20:03:47;101638.13;;;27.27;41.68
26563;BME280;14217;50.986;5.826;2022-07-12T20:08:49;101644.75;;;27.22;41.72
26563;BME280;14217;50.986;5.826;2022-07-12T20:13:51;101647.44;;;27.22;41.67
26563;BME280;14217;50.986;5.826;2022-07-12T20:18:53;101648.66;;;27.17;41.77
26563;BME280;14217;50.986;5.826;2022-07-12T20:23:55;101638.03;;;27.29;41.47
26563;BME280;14217;50.986;5.826;2022-07-12T20:28:57;101653.19;;;27.30;41.43
26563;BME280;14217;50.986;5.826;2022-07-12T20:33:59;101650.50;;;27.30;41.34
26563;BME280;14217;50.986;5.826;2022-07-12T20:39:19;101650.16;;;27.22;41.41
26563;BME280;14217;50.986;5.826;2022-07-12T20:44:21;101638.25;;;27.26;41.58
26563;BME280;14217;50.986;5.826;2022-07-12T20:49:24;101629.75;;;27.32;41.26
26563;BME280;14217;50.986;5.826;2022-07-12T20:54:26;101622.97;;;27.26;41.64
26563;BME280;14217;50.986;5.826;2022-07-12T20:59:32;101621.78;;;27.30;42.03
26563;BME280;14217;50.986;5.826;2022-07-12T21:04:34;101610.91;;;27.32;42.00
26563;BME280;14217;50.986;5.826;2022-07-12T21:09:37;101621.78;;;27.30;42.00
26563;BME280;14217;50.986;5.826;2022-07-12T21:14:40;101629.41;;;27.24;41.94
26563;BME280;14217;50.986;5.826;2022-07-12T21:19:42;101637.78;;;27.19;42.11
26563;BME280;14217;50.986;5.826;2022-07-12T21:24:45;101627.69;;;27.23;41.71
26563;BME280;14217;50.986;5.826;2022-07-12T21:29:47;101633.94;;;27.23;41.53
26563;BME280;14217;50.986;5.826;2022-07-12T21:34:49;101624.91;;;27.24;41.46
26563;BME280;14217;50.986;5.826;2022-07-12T21:39:51;101623.84;;;27.27;41.24
26563;BME280;14217;50.986;5.826;2022-07-12T21:44:53;101628.75;;;27.20;41.29
26563;BME280;14217;50.986;5.826;2022-07-12T21:49:56;101633.75;;;27.26;41.17
26563;BME280;14217;50.986;5.826;2022-07-12T21:54:58;101641.16;;;27.23;41.12
26563;BME280;14217;50.986;5.826;2022-07-12T22:00:00;101627.28;;;27.29;41.16
26563;BME280;14217;50.986;5.826;2022-07-12T22:05:02;101617.28;;;27.31;40.98
26563;BME280;14217;50.986;5.826;2022-07-12T22:10:04;101614.25;;;27.35;40.68
26563;BME280;14217;50.986;5.826;2022-07-12T22:15:07;101612.66;;;27.33;40.78
26563;BME280;14217;50.986;5.826;2022-07-12T22:20:09;101596.50;;;27.33;40.78
26563;BME280;14217;50.986;5.826;2022-07-12T22:25:11;101593.91;;;27.31;40.64
26563;BME280;14217;50.986;5.826;2022-07-12T22:30:13;101598.34;;;27.32;40.65
26563;BME280;14217;50.986;5.826;2022-07-12T22:35:15;101594.66;;;27.33;40.63
26563;BME280;14217;50.986;5.826;2022-07-12T22:40:17;101601.78;;;27.34;40.49
26563;BME280;14217;50.986;5.826;2022-07-12T22:45:19;101590.56;;;27.41;40.39
26563;BME280;14217;50.986;5.826;2022-07-12T22:50:21;101591.63;;;27.38;40.52
26563;BME280;14217;50.986;5.826;2022-07-12T22:55:42;101583.47;;;27.40;40.45
26563;BME280;14217;50.986;5.826;2022-07-12T23:00:44;101579.50;;;27.45;40.21
26563;BME280;14217;50.986;5.826;2022-07-12T23:05:46;101585.38;;;27.50;40.10
26563;BME280;14217;50.986;5.826;2022-07-12T23:10:49;101572.47;;;27.43;40.16
26563;BME280;14217;50.986;5.826;2022-07-12T23:15:51;101566.97;;;27.44;40.19
26563;BME280;14217;50.986;5.826;2022-07-12T23:20:54;101560.00;;;27.42;40.06
26563;BME280;14217;50.986;5.826;2022-07-12T23:25:56;101560.09;;;27.40;40.29
26563;BME280;14217;50.986;5.826;2022-07-12T23:30:58;101559.00;;;27.43;40.32
26563;BME280;14217;50.986;5.826;2022-07-12T23:36:00;101561.69;;;27.43;40.30
26563;BME280;14217;50.986;5.826;2022-07-12T23:41:03;101553.19;;;27.49;40.14
26563;BME280;14217;50.986;5.826;2022-07-12T23:46:05;101557.72;;;27.48;40.00
26563;BME280;14217;50.986;5.826;2022-07-12T23:51:07;101552.34;;;27.48;39.93
26563;BME280;14217;50.986;5.826;2022-07-12T23:56:09;101548.88;;;27.59;39.80
